sensor_id;sensor_type;location;lat;lon;timestamp;temperature;humidity
45643;DHT22;31358;46.008;11.144;2023-07-29T00:01:39;21.00;99.90
45643;DHT22;31358;46.008;11.144;2023-07-29T00:04:06;20.90;99.90
45643;DHT22;31358;46.008;11.144;2023-07-29T00:06:33;20.70;99.90
45643;DHT22;31358;46.008;11.144;2023-07-29T00:08:59;20.60;99.90
45643;DHT22;31358;46.008;11.144;2023-07-29T00:11:24;20.40;99.90
45643;DHT22;31358;46.008;11.144;2023-07-29T00:13:50;20.20;99.90
45643;DHT22;31358;46.008;11.144;2023-07-29T00:16:16;20.20;99.90
45643;DHT22;31358;46.008;11.144;2023-07-29T00:18:43;20.30;99.90
45643;DHT22;31358;46.008;11.144;2023-07-29T00:21:09;20.50;99.90
45643;DHT22;31358;46.008;11.144;2023-07-29T00:23:34;20.50;99.90
45643;DHT22;31358;46.008;11.144;2023-07-29T00:26:00;20.40;99.90
45643;DHT22;31358;46.008;11.144;2023-07-29T00:28:26;20.30;99.90
45643;DHT22;31358;46.008;11.144;2023-07-29T00:30:51;20.10;99.90
45643;DHT22;31358;46.008;11.144;2023-07-29T00:33:17;20.10;99.90
45643;DHT22;31358;46.008;11.144;2023-07-29T00:35:43;20.00;99.90
45643;DHT22;31358;46.008;11.144;2023-07-29T00:38:08;19.90;99.90
45643;DHT22;31358;46.008;11.144;2023-07-29T00:40:35;19.90;99.90
45643;DHT22;31358;46.008;11.144;2023-07-29T00:43:02;19.90;99.90
45643;DHT22;31358;46.008;11.144;2023-07-29T00:45:29;19.90;99.90
45643;DHT22;31358;46.008;11.144;2023-07-29T00:47:55;19.90;99.90
45643;DHT22;31358;46.008;11.144;2023-07-29T00:50:21;20.00;99.90
45643;DHT22;31358;46.008;11.144;2023-07-29T00:52:48;20.00;99.90
45643;DHT22;31358;46.008;11.144;2023-07-29T00:55:13;19.90;99.90
45643;DHT22;31358;46.008;11.144;2023-07-29T00:57:39;19.80;99.90
45643;DHT22;31358;46.008;11.144;2023-07-29T01:00:06;19.80;99.90
45643;DHT22;31358;46.008;11.144;2023-07-29T01:02:31;19.70;99.90
45643;DHT22;31358;46.008;11.144;2023-07-29T01:04:58;19.60;99.90
45643;DHT22;31358;46.008;11.144;2023-07-29T01:15:14;19.20;99.90
45643;DHT22;31358;46.008;11.144;2023-07-29T01:18:04;19.30;99.90
45643;DHT22;31358;46.008;11.144;2023-07-29T01:20:33;19.40;99.90
45643;DHT22;31358;46.008;11.144;2023-07-29T01:22:59;19.40;99.90
45643;DHT22;31358;46.008;11.144;2023-07-29T01:25:25;19.40;99.90
45643;DHT22;31358;46.008;11.144;2023-07-29T01:27:51;19.50;99.90
45643;DHT22;31358;46.008;11.144;2023-07-29T01:30:18;19.40;99.90
45643;DHT22;31358;46.008;11.144;2023-07-29T01:33:13;19.40;99.90
45643;DHT22;31358;46.008;11.144;2023-07-29T01:35:45;19.20;99.90
45643;DHT22;31358;46.008;11.144;2023-07-29T01:38:18;19.40;99.90
45643;DHT22;31358;46.008;11.144;2023-07-29T01:40:46;19.50;99.90
45643;DHT22;31358;46.008;11.144;2023-07-29T01:43:13;19.50;99.90
45643;DHT22;31358;46.008;11.144;2023-07-29T01:45:39;19.30;99.90
45643;DHT22;31358;46.008;11.144;2023-07-29T01:48:06;19.30;99.90
45643;DHT22;31358;46.008;11.144;2023-07-29T01:50:31;19.50;99.90
45643;DHT22;31358;46.008;11.144;2023-07-29T01:52:58;19.80;99.90
45643;DHT22;31358;46.008;11.144;2023-07-29T01:55:24;19.90;99.90
45643;DHT22;31358;46.008;11.144;2023-07-29T01:57:49;19.80;99.90
45643;DHT22;31358;46.008;11.144;2023-07-29T02:00:17;19.70;99.90
45643;DHT22;31358;46.008;11.144;2023-07-29T02:02:43;19.90;99.90
45643;DHT22;31358;46.008;11.144;2023-07-29T02:05:08;20.00;99.90
45643;DHT22;31358;46.008;11.144;2023-07-29T02:07:34;19.80;99.90
45643;DHT22;31358;46.008;11.144;2023-07-29T02:10:00;19.70;99.90
45643;DHT22;31358;46.008;11.144;2023-07-29T02:12:25;19.90;99.90
45643;DHT22;31358;46.008;11.144;2023-07-29T02:14:51;19.80;99.90
45643;DHT22;31358;46.008;11.144;2023-07-29T02:17:17;19.70;99.90
45643;DHT22;31358;46.008;11.144;2023-07-29T02:19:42;19.40;99.90
45643;DHT22;31358;46.008;11.144;2023-07-29T02:22:09;19.30;99.90
45643;DHT22;31358;46.008;11.144;2023-07-29T02:24:35;19.20;99.90
45643;DHT22;31358;46.008;11.144;2023-07-29T02:27:01;19.10;99.90
45643;DHT22;31358;46.008;11.144;2023-07-29T02:29:26;19.00;99.90
45643;DHT22;31358;46.008;11.144;2023-07-29T02:31:52;19.00;99.90
45643;DHT22;31358;46.008;11.144;2023-07-29T02:34:17;19.00;99.90
45643;DHT22;31358;46.008;11.144;2023-07-29T02:36:43;19.20;99.90
45643;DHT22;31358;46.008;11.144;2023-07-29T02:39:09;19.40;99.90
45643;DHT22;31358;46.008;11.144;2023-07-29T02:41:35;19.30;99.90
45643;DHT22;31358;46.008;11.144;2023-07-29T02:44:01;19.40;99.90
45643;DHT22;31358;46.008;11.144;2023-07-29T02:46:27;19.40;99.90
45643;DHT22;31358;46.008;11.144;2023-07-29T02:48:53;19.40;99.90
45643;DHT22;31358;46.008;11.144;2023-07-29T02:51:19;19.40;99.90
45643;DHT22;31358;46.008;11.144;2023-07-29T02:53:44;19.30;99.90
45643;DHT22;31358;46.008;11.144;2023-07-29T02:56:10;19.20;99.90
45643;DHT22;31358;46.008;11.144;2023-07-29T02:58:38;19.30;99.90
45643;DHT22;31358;46.008;11.144;2023-07-29T03:01:04;19.30;99.90
45643;DHT22;31358;46.008;11.144;2023-07-29T03:03:31;19.20;99.90
45643;DHT22;31358;46.008;11.144;2023-07-29T03:06:07;19.10;99.90
45643;DHT22;31358;46.008;11.144;2023-07-29T03:08:34;19.20;99.90
45643;DHT22;31358;46.008;11.144;2023-07-29T03:11:09;19.30;99.90
45643;DHT22;31358;46.008;11.144;2023-07-29T03:13:35;19.40;99.90
45643;DHT22;31358;46.008;11.144;2023-07-29T03:16:08;19.50;99.90
45643;DHT22;31358;46.008;11.144;2023-07-29T03:18:34;19.50;99.90
45643;DHT22;31358;46.008;11.144;2023-07-29T03:21:00;19.30;99.90
45643;DHT22;31358;46.008;11.144;2023-07-29T03:23:26;19.20;99.90
45643;DHT22;31358;46.008;11.144;2023-07-29T03:25:55;19.20;99.90
45643;DHT22;31358;46.008;11.144;2023-07-29T03:28:26;19.30;99.90
45643;DHT22;31358;46.008;11.144;2023-07-29T03:30:53;19.20;99.90
45643;DHT22;31358;46.008;11.144;2023-07-29T03:33:19;19.10;99.90
45643;DHT22;31358;46.008;11.144;2023-07-29T03:35:45;19.30;99.90
45643;DHT22;31358;46.008;11.144;2023-07-29T03:38:13;19.40;99.90
45643;DHT22;31358;46.008;11.144;2023-07-29T03:40:40;19.50;99.90
45643;DHT22;31358;46.008;11.144;2023-07-29T03:43:06;19.40;99.90
45643;DHT22;31358;46.008;11.144;2023-07-29T03:45:33;19.20;99.90
45643;DHT22;31358;46.008;11.144;2023-07-29T03:47:59;18.90;99.90
45643;DHT22;31358;46.008;11.144;2023-07-29T03:50:25;19.00;99.90
45643;DHT22;31358;46.008;11.144;2023-07-29T03:52:50;19.00;99.90
45643;DHT22;31358;46.008;11.144;2023-07-29T03:55:16;18.90;99.90
45643;DHT22;31358;46.008;11.144;2023-07-29T03:57:42;18.80;99.90
45643;DHT22;31358;46.008;11.144;2023-07-29T04:00:08;18.70;99.90
45643;DHT22;31358;46.008;11.144;2023-07-29T04:02:37;18.60;99.90
45643;DHT22;31358;46.008;11.144;2023-07-29T04:05:06;18.70;99.90
45643;DHT22;31358;46.008;11.144;2023-07-29T04:07:37;18.70;99.90
45643;DHT22;31358;46.008;11.144;2023-07-29T04:10:03;18.70;99.90
45643;DHT22;31358;46.008;11.144;2023-07-29T04:12:30;18.70;99.90
45643;DHT22;31358;46.008;11.144;2023-07-29T04:14:56;18.80;99.90
45643;DHT22;31358;46.008;11.144;2023-07-29T04:17:22;18.80;99.90
45643;DHT22;31358;46.008;11.144;2023-07-29T04:19:47;18.70;99.90
45643;DHT22;31358;46.008;11.144;2023-07-29T04:22:15;18.70;99.90
45643;DHT22;31358;46.008;11.144;2023-07-29T04:24:40;18.70;99.90
45643;DHT22;31358;46.008;11.144;2023-07-29T04:27:06;18.60;99.90
45643;DHT22;31358;46.008;11.144;2023-07-29T04:29:32;18.70;99.90
45643;DHT22;31358;46.008;11.144;2023-07-29T04:31:57;18.70;99.90
45643;DHT22;31358;46.008;11.144;2023-07-29T04:34:23;18.80;99.90
45643;DHT22;31358;46.008;11.144;2023-07-29T04:36:49;18.90;99.90
45643;DHT22;31358;46.008;11.144;2023-07-29T04:39:15;19.00;99.90
45643;DHT22;31358;46.008;11.144;2023-07-29T04:41:40;19.00;99.90
45643;DHT22;31358;46.008;11.144;2023-07-29T04:44:06;19.10;99.90
45643;DHT22;31358;46.008;11.144;2023-07-29T04:46:32;19.00;99.90
45643;DHT22;31358;46.008;11.144;2023-07-29T04:48:58;19.00;99.90
45643;DHT22;31358;46.008;11.144;2023-07-29T04:51:24;18.90;99.90
45643;DHT22;31358;46.008;11.144;2023-07-29T04:53:50;18.90;99.90
45643;DHT22;31358;46.008;11.144;2023-07-29T04:56:16;18.90;99.90
45643;DHT22;31358;46.008;11.144;2023-07-29T04:58:42;18.90;99.90
45643;DHT22;31358;46.008;11.144;2023-07-29T05:01:08;19.20;99.90
45643;DHT22;31358;46.008;11.144;2023-07-29T05:03:33;19.30;99.90
45643;DHT22;31358;46.008;11.144;2023-07-29T05:05:59;19.20;99.90
45643;DHT22;31358;46.008;11.144;2023-07-29T05:08:28;19.20;99.90
45643;DHT22;31358;46.008;11.144;2023-07-29T05:10:54;19.20;99.90
45643;DHT22;31358;46.008;11.144;2023-07-29T05:13:22;19.30;99.90
45643;DHT22;31358;46.008;11.144;2023-07-29T05:15:49;19.30;99.90
45643;DHT22;31358;46.008;11.144;2023-07-29T05:18:16;19.40;99.90
45643;DHT22;31358;46.008;11.144;2023-07-29T05:20:42;19.20;99.90
45643;DHT22;31358;46.008;11.144;2023-07-29T05:23:07;19.20;99.90
45643;DHT22;31358;46.008;11.144;2023-07-29T05:25:33;19.20;99.90
45643;DHT22;31358;46.008;11.144;2023-07-29T05:28:00;19.30;99.90
45643;DHT22;31358;46.008;11.144;2023-07-29T05:30:26;19.20;99.90
45643;DHT22;31358;46.008;11.144;2023-07-29T05:32:58;19.20;99.90
45643;DHT22;31358;46.008;11.144;2023-07-29T05:35:24;19.30;99.90
45643;DHT22;31358;46.008;11.144;2023-07-29T05:37:50;19.40;99.90
45643;DHT22;31358;46.008;11.144;2023-07-29T05:40:16;19.40;99.90
45643;DHT22;31358;46.008;11.144;2023-07-29T05:42:42;19.30;99.90
45643;DHT22;31358;46.008;11.144;2023-07-29T05:45:09;19.40;99.90
45643;DHT22;31358;46.008;11.144;2023-07-29T05:47:35;19.50;99.90
45643;DHT22;31358;46.008;11.144;2023-07-29T05:50:00;19.50;99.90
45643;DHT22;31358;46.008;11.144;2023-07-29T05:52:30;19.60;99.90
45643;DHT22;31358;46.008;11.144;2023-07-29T05:54:55;19.50;99.90
45643;DHT22;31358;46.008;11.144;2023-07-29T05:57:21;19.50;99.90
45643;DHT22;31358;46.008;11.144;2023-07-29T05:59:47;19.60;99.90
45643;DHT22;31358;46.008;11.144;2023-07-29T06:02:12;19.70;99.90
45643;DHT22;31358;46.008;11.144;2023-07-29T06:04:38;19.70;99.90
45643;DHT22;31358;46.008;11.144;2023-07-29T06:07:04;19.70;99.90
45643;DHT22;31358;46.008;11.144;2023-07-29T06:09:30;19.80;99.90
45643;DHT22;31358;46.008;11.144;2023-07-29T06:11:56;19.90;99.90
45643;DHT22;31358;46.008;11.144;2023-07-29T06:14:21;19.80;99.90
45643;DHT22;31358;46.008;11.144;2023-07-29T06:16:47;19.80;99.90
45643;DHT22;31358;46.008;11.144;2023-07-29T06:19:13;19.90;99.90
45643;DHT22;31358;46.008;11.144;2023-07-29T06:21:38;20.00;99.90
45643;DHT22;31358;46.008;11.144;2023-07-29T06:24:04;20.10;99.90
45643;DHT22;31358;46.008;11.144;2023-07-29T06:26:30;20.00;99.90
45643;DHT22;31358;46.008;11.144;2023-07-29T06:28:55;20.10;99.90
45643;DHT22;31358;46.008;11.144;2023-07-29T06:31:22;20.10;99.90
45643;DHT22;31358;46.008;11.144;2023-07-29T06:33:47;20.20;99.90
45643;DHT22;31358;46.008;11.144;2023-07-29T06:36:13;20.20;99.90
45643;DHT22;31358;46.008;11.144;2023-07-29T06:38:39;20.30;99.90
45643;DHT22;31358;46.008;11.144;2023-07-29T06:41:06;20.30;99.90
45643;DHT22;31358;46.008;11.144;2023-07-29T06:43:32;20.40;99.90
45643;DHT22;31358;46.008;11.144;2023-07-29T06:45:57;20.50;99.90
45643;DHT22;31358;46.008;11.144;2023-07-29T06:48:23;20.60;99.90
45643;DHT22;31358;46.008;11.144;2023-07-29T06:50:49;20.60;99.90
45643;DHT22;31358;46.008;11.144;2023-07-29T06:53:20;20.60;99.90
45643;DHT22;31358;46.008;11.144;2023-07-29T06:55:46;20.60;99.90
45643;DHT22;31358;46.008;11.144;2023-07-29T06:58:11;20.80;99.90
45643;DHT22;31358;46.008;11.144;2023-07-29T07:00:37;20.90;99.90
45643;DHT22;31358;46.008;11.144;2023-07-29T07:03:03;21.00;99.90
45643;DHT22;31358;46.008;11.144;2023-07-29T07:05:28;21.20;99.90
45643;DHT22;31358;46.008;11.144;2023-07-29T07:07:54;21.40;99.90
45643;DHT22;31358;46.008;11.144;2023-07-29T07:10:19;21.70;99.90
45643;DHT22;31358;46.008;11.144;2023-07-29T07:12:45;22.00;99.90
45643;DHT22;31358;46.008;11.144;2023-07-29T07:15:11;22.20;99.90
45643;DHT22;31358;46.008;11.144;2023-07-29T07:17:37;22.30;99.90
45643;DHT22;31358;46.008;11.144;2023-07-29T07:20:03;22.50;99.90
45643;DHT22;31358;46.008;11.144;2023-07-29T07:22:29;22.90;99.90
45643;DHT22;31358;46.008;11.144;2023-07-29T07:24:54;23.20;99.90
45643;DHT22;31358;46.008;11.144;2023-07-29T07:27:20;23.80;99.90
45643;DHT22;31358;46.008;11.144;2023-07-29T07:29:47;24.70;99.90
45643;DHT22;31358;46.008;11.144;2023-07-29T07:32:12;25.90;99.90
45643;DHT22;31358;46.008;11.144;2023-07-29T07:34:38;26.70;98.40
45643;DHT22;31358;46.008;11.144;2023-07-29T07:37:04;27.50;97.50
45643;DHT22;31358;46.008;11.144;2023-07-29T07:39:31;28.30;97.00
45643;DHT22;31358;46.008;11.144;2023-07-29T07:41:56;28.80;96.90
45643;DHT22;31358;46.008;11.144;2023-07-29T07:44:22;28.90;96.10
45643;DHT22;31358;46.008;11.144;2023-07-29T07:46:48;29.20;95.40
45643;DHT22;31358;46.008;11.144;2023-07-29T07:49:14;29.00;95.20
45643;DHT22;31358;46.008;11.144;2023-07-29T07:51:39;29.20;95.00
45643;DHT22;31358;46.008;11.144;2023-07-29T07:54:05;29.60;95.00
45643;DHT22;31358;46.008;11.144;2023-07-29T07:56:31;28.80;94.60
45643;DHT22;31358;46.008;11.144;2023-07-29T07:58:57;29.10;94.80
45643;DHT22;31358;46.008;11.144;2023-07-29T08:01:23;29.10;94.90
45643;DHT22;31358;46.008;11.144;2023-07-29T08:03:48;29.40;94.90
45643;DHT22;31358;46.008;11.144;2023-07-29T08:06:14;28.30;96.00
45643;DHT22;31358;46.008;11.144;2023-07-29T08:08:39;26.30;98.20
45643;DHT22;31358;46.008;11.144;2023-07-29T08:11:05;25.20;99.00
45643;DHT22;31358;46.008;11.144;2023-07-29T08:13:31;24.90;99.90
45643;DHT22;31358;46.008;11.144;2023-07-29T08:15:57;26.80;97.90
45643;DHT22;31358;46.008;11.144;2023-07-29T08:18:22;27.80;96.40
45643;DHT22;31358;46.008;11.144;2023-07-29T08:20:54;28.30;95.50
45643;DHT22;31358;46.008;11.144;2023-07-29T08:23:21;28.60;95.80
45643;DHT22;31358;46.008;11.144;2023-07-29T08:25:54;28.00;95.50
45643;DHT22;31358;46.008;11.144;2023-07-29T08:28:22;27.70;96.20
45643;DHT22;31358;46.008;11.144;2023-07-29T08:30:47;27.10;96.60
45643;DHT22;31358;46.008;11.144;2023-07-29T08:33:13;25.80;97.20
45643;DHT22;31358;46.008;11.144;2023-07-29T08:35:39;25.80;98.50
45643;DHT22;31358;46.008;11.144;2023-07-29T08:38:04;25.60;98.10
45643;DHT22;31358;46.008;11.144;2023-07-29T08:40:32;25.00;98.40
45643;DHT22;31358;46.008;11.144;2023-07-29T08:43:04;25.30;99.30
45643;DHT22;31358;46.008;11.144;2023-07-29T08:45:33;25.10;98.80
45643;DHT22;31358;46.008;11.144;2023-07-29T08:48:02;25.00;98.80
45643;DHT22;31358;46.008;11.144;2023-07-29T08:50:32;24.80;99.90
45643;DHT22;31358;46.008;11.144;2023-07-29T08:52:59;25.10;99.90
45643;DHT22;31358;46.008;11.144;2023-07-29T08:55:26;25.20;99.90
45643;DHT22;31358;46.008;11.144;2023-07-29T08:57:53;25.10;98.90
45643;DHT22;31358;46.008;11.144;2023-07-29T09:00:19;25.20;99.30
45643;DHT22;31358;46.008;11.144;2023-07-29T09:02:45;25.30;99.60
45643;DHT22;31358;46.008;11.144;2023-07-29T09:05:10;25.20;99.10
45643;DHT22;31358;46.008;11.144;2023-07-29T09:07:36;25.00;98.90
45643;DHT22;31358;46.008;11.144;2023-07-29T09:10:02;25.20;99.40
45643;DHT22;31358;46.008;11.144;2023-07-29T09:12:28;25.40;99.10
45643;DHT22;31358;46.008;11.144;2023-07-29T09:14:53;25.70;99.80
45643;DHT22;31358;46.008;11.144;2023-07-29T09:17:22;25.70;98.10
45643;DHT22;31358;46.008;11.144;2023-07-29T09:19:49;25.60;98.90
45643;DHT22;31358;46.008;11.144;2023-07-29T09:22:19;25.60;99.00
45643;DHT22;31358;46.008;11.144;2023-07-29T09:24:46;25.50;98.30
45643;DHT22;31358;46.008;11.144;2023-07-29T09:29:51;26.20;99.60
45643;DHT22;31358;46.008;11.144;2023-07-29T09:32:24;26.20;98.50
45643;DHT22;31358;46.008;11.144;2023-07-29T09:34:50;26.20;97.90
45643;DHT22;31358;46.008;11.144;2023-07-29T09:37:17;26.40;98.30
45643;DHT22;31358;46.008;11.144;2023-07-29T09:39:47;26.50;97.80
45643;DHT22;31358;46.008;11.144;2023-07-29T09:42:18;26.40;97.90
45643;DHT22;31358;46.008;11.144;2023-07-29T09:44:44;25.90;98.30
45643;DHT22;31358;46.008;11.144;2023-07-29T09:47:22;26.00;98.60
45643;DHT22;31358;46.008;11.144;2023-07-29T09:49:48;26.40;98.30
45643;DHT22;31358;46.008;11.144;2023-07-29T09:52:16;26.30;97.70
45643;DHT22;31358;46.008;11.144;2023-07-29T09:54:43;26.70;99.10
45643;DHT22;31358;46.008;11.144;2023-07-29T09:57:19;26.80;99.00
45643;DHT22;31358;46.008;11.144;2023-07-29T10:00:05;26.90;98.40
45643;DHT22;31358;46.008;11.144;2023-07-29T10:02:39;26.70;99.30
45643;DHT22;31358;46.008;11.144;2023-07-29T10:05:07;26.90;98.60
45643;DHT22;31358;46.008;11.144;2023-07-29T10:07:34;27.10;98.80
45643;DHT22;31358;46.008;11.144;2023-07-29T10:10:02;27.20;98.30
45643;DHT22;31358;46.008;11.144;2023-07-29T10:12:29;27.30;98.10
45643;DHT22;31358;46.008;11.144;2023-07-29T10:14:59;27.50;98.40
45643;DHT22;31358;46.008;11.144;2023-07-29T10:17:26;27.30;97.40
45643;DHT22;31358;46.008;11.144;2023-07-29T10:19:52;27.20;98.20
45643;DHT22;31358;46.008;11.144;2023-07-29T10:22:20;27.40;98.60
45643;DHT22;31358;46.008;11.144;2023-07-29T10:24:48;27.90;97.60
45643;DHT22;31358;46.008;11.144;2023-07-29T10:27:17;28.00;97.60
45643;DHT22;31358;46.008;11.144;2023-07-29T10:29:45;28.00;96.50
45643;DHT22;31358;46.008;11.144;2023-07-29T10:32:11;27.80;97.10
45643;DHT22;31358;46.008;11.144;2023-07-29T10:34:37;28.00;97.20
45643;DHT22;31358;46.008;11.144;2023-07-29T10:37:03;28.20;97.80
45643;DHT22;31358;46.008;11.144;2023-07-29T10:39:39;27.70;96.00
45643;DHT22;31358;46.008;11.144;2023-07-29T10:42:06;27.70;96.80
45643;DHT22;31358;46.008;11.144;2023-07-29T10:47:24;28.20;96.10
45643;DHT22;31358;46.008;11.144;2023-07-29T10:49:56;27.80;96.70
45643;DHT22;31358;46.008;11.144;2023-07-29T10:52:49;28.30;96.70
45643;DHT22;31358;46.008;11.144;2023-07-29T10:55:25;28.20;95.80
45643;DHT22;31358;46.008;11.144;2023-07-29T10:57:51;28.20;96.10
45643;DHT22;31358;46.008;11.144;2023-07-29T11:00:20;28.40;96.30
45643;DHT22;31358;46.008;11.144;2023-07-29T11:03:09;28.40;97.50
45643;DHT22;31358;46.008;11.144;2023-07-29T11:05:51;28.30;96.50
45643;DHT22;31358;46.008;11.144;2023-07-29T11:10:44;28.20;96.50
45643;DHT22;31358;46.008;11.144;2023-07-29T11:13:10;28.50;98.70
45643;DHT22;31358;46.008;11.144;2023-07-29T11:15:39;28.40;96.60
45643;DHT22;31358;46.008;11.144;2023-07-29T11:18:05;28.60;97.50
45643;DHT22;31358;46.008;11.144;2023-07-29T11:20:33;28.60;96.50
45643;DHT22;31358;46.008;11.144;2023-07-29T11:23:03;28.20;96.20
45643;DHT22;31358;46.008;11.144;2023-07-29T11:25:30;28.30;96.10
45643;DHT22;31358;46.008;11.144;2023-07-29T11:27:58;28.00;96.20
45643;DHT22;31358;46.008;11.144;2023-07-29T11:30:25;28.10;97.30
45643;DHT22;31358;46.008;11.144;2023-07-29T11:32:55;28.30;98.20
45643;DHT22;31358;46.008;11.144;2023-07-29T11:35:21;28.50;96.70
45643;DHT22;31358;46.008;11.144;2023-07-29T11:37:48;28.10;96.60
45643;DHT22;31358;46.008;11.144;2023-07-29T11:40:22;28.20;97.20
45643;DHT22;31358;46.008;11.144;2023-07-29T11:42:49;27.90;96.60
45643;DHT22;31358;46.008;11.144;2023-07-29T11:45:20;28.40;97.30
45643;DHT22;31358;46.008;11.144;2023-07-29T11:47:46;28.60;97.30
45643;DHT22;31358;46.008;11.144;2023-07-29T11:50:13;28.50;96.60
45643;DHT22;31358;46.008;11.144;2023-07-29T11:52:45;28.70;96.10
45643;DHT22;31358;46.008;11.144;2023-07-29T11:55:12;28.90;96.40
45643;DHT22;31358;46.008;11.144;2023-07-29T11:57:39;29.10;96.50
45643;DHT22;31358;46.008;11.144;2023-07-29T12:00:07;29.10;96.30
45643;DHT22;31358;46.008;11.144;2023-07-29T12:02:39;29.50;97.90
45643;DHT22;31358;46.008;11.144;2023-07-29T12:05:05;29.60;96.30
45643;DHT22;31358;46.008;11.144;2023-07-29T12:07:31;29.60;97.00
45643;DHT22;31358;46.008;11.144;2023-07-29T12:09:59;29.50;96.50
45643;DHT22;31358;46.008;11.144;2023-07-29T12:12:24;29.60;96.80
45643;DHT22;31358;46.008;11.144;2023-07-29T12:14:50;29.70;97.50
45643;DHT22;31358;46.008;11.144;2023-07-29T12:17:16;29.50;96.60
45643;DHT22;31358;46.008;11.144;2023-07-29T12:19:42;29.60;96.50
45643;DHT22;31358;46.008;11.144;2023-07-29T12:22:10;29.50;96.50
45643;DHT22;31358;46.008;11.144;2023-07-29T12:24:38;29.40;96.20
45643;DHT22;31358;46.008;11.144;2023-07-29T12:27:04;29.50;97.00
45643;DHT22;31358;46.008;11.144;2023-07-29T12:29:30;29.80;96.60
45643;DHT22;31358;46.008;11.144;2023-07-29T12:32:01;29.80;97.00
45643;DHT22;31358;46.008;11.144;2023-07-29T12:34:28;29.90;96.40
45643;DHT22;31358;46.008;11.144;2023-07-29T12:36:54;29.90;96.20
45643;DHT22;31358;46.008;11.144;2023-07-29T12:39:34;29.70;96.10
45643;DHT22;31358;46.008;11.144;2023-07-29T12:42:01;29.90;97.10
45643;DHT22;31358;46.008;11.144;2023-07-29T12:44:33;29.90;96.40
45643;DHT22;31358;46.008;11.144;2023-07-29T12:47:01;29.90;96.80
45643;DHT22;31358;46.008;11.144;2023-07-29T12:49:28;29.60;96.00
45643;DHT22;31358;46.008;11.144;2023-07-29T12:51:58;29.90;96.40
45643;DHT22;31358;46.008;11.144;2023-07-29T12:54:23;30.20;96.50
45643;DHT22;31358;46.008;11.144;2023-07-29T12:56:49;30.30;96.60
45643;DHT22;31358;46.008;11.144;2023-07-29T12:59:15;30.40;96.00
45643;DHT22;31358;46.008;11.144;2023-07-29T13:01:41;30.20;95.70
45643;DHT22;31358;46.008;11.144;2023-07-29T13:04:06;30.10;96.30
45643;DHT22;31358;46.008;11.144;2023-07-29T13:06:32;30.10;96.60
45643;DHT22;31358;46.008;11.144;2023-07-29T13:08:58;30.00;95.70
45643;DHT22;31358;46.008;11.144;2023-07-29T13:11:23;30.20;95.60
45643;DHT22;31358;46.008;11.144;2023-07-29T13:13:49;30.30;95.60
45643;DHT22;31358;46.008;11.144;2023-07-29T13:16:15;30.30;96.00
45643;DHT22;31358;46.008;11.144;2023-07-29T13:18:41;30.20;94.60
45643;DHT22;31358;46.008;11.144;2023-07-29T13:21:08;30.40;96.10
45643;DHT22;31358;46.008;11.144;2023-07-29T13:23:34;30.20;95.40
45643;DHT22;31358;46.008;11.144;2023-07-29T13:25:59;29.40;95.50
45643;DHT22;31358;46.008;11.144;2023-07-29T13:28:25;29.10;95.50
45643;DHT22;31358;46.008;11.144;2023-07-29T13:30:51;29.40;95.90
45643;DHT22;31358;46.008;11.144;2023-07-29T13:33:16;29.60;95.70
45643;DHT22;31358;46.008;11.144;2023-07-29T13:35:42;29.70;95.80
45643;DHT22;31358;46.008;11.144;2023-07-29T13:38:08;29.70;95.90
45643;DHT22;31358;46.008;11.144;2023-07-29T13:40:33;29.40;95.90
45643;DHT22;31358;46.008;11.144;2023-07-29T13:42:59;29.20;96.10
45643;DHT22;31358;46.008;11.144;2023-07-29T13:45:25;29.00;96.40
45643;DHT22;31358;46.008;11.144;2023-07-29T13:47:50;28.80;96.20
45643;DHT22;31358;46.008;11.144;2023-07-29T13:50:17;28.60;96.50
45643;DHT22;31358;46.008;11.144;2023-07-29T13:52:46;28.60;96.60
45643;DHT22;31358;46.008;11.144;2023-07-29T13:55:11;28.50;96.50
45643;DHT22;31358;46.008;11.144;2023-07-29T13:57:38;28.70;96.60
45643;DHT22;31358;46.008;11.144;2023-07-29T14:00:07;28.60;96.30
45643;DHT22;31358;46.008;11.144;2023-07-29T14:02:33;28.60;96.80
45643;DHT22;31358;46.008;11.144;2023-07-29T14:04:59;28.70;97.00
45643;DHT22;31358;46.008;11.144;2023-07-29T14:07:25;28.50;96.20
45643;DHT22;31358;46.008;11.144;2023-07-29T14:09:50;28.50;96.30
45643;DHT22;31358;46.008;11.144;2023-07-29T14:12:16;28.40;96.50
45643;DHT22;31358;46.008;11.144;2023-07-29T14:14:42;28.40;96.20
45643;DHT22;31358;46.008;11.144;2023-07-29T14:17:08;28.30;96.30
45643;DHT22;31358;46.008;11.144;2023-07-29T14:19:34;28.30;96.00
45643;DHT22;31358;46.008;11.144;2023-07-29T14:22:00;28.30;96.30
45643;DHT22;31358;46.008;11.144;2023-07-29T14:24:25;28.30;95.90
45643;DHT22;31358;46.008;11.144;2023-07-29T14:26:51;28.20;95.70
45643;DHT22;31358;46.008;11.144;2023-07-29T14:29:17;28.20;96.00
45643;DHT22;31358;46.008;11.144;2023-07-29T14:31:42;28.20;95.90
45643;DHT22;31358;46.008;11.144;2023-07-29T14:34:08;28.30;95.80
45643;DHT22;31358;46.008;11.144;2023-07-29T14:36:34;28.80;95.90
45643;DHT22;31358;46.008;11.144;2023-07-29T14:39:00;29.00;95.40
45643;DHT22;31358;46.008;11.144;2023-07-29T14:41:25;29.20;95.70
45643;DHT22;31358;46.008;11.144;2023-07-29T14:43:51;28.90;95.50
45643;DHT22;31358;46.008;11.144;2023-07-29T14:46:17;28.60;95.90
45643;DHT22;31358;46.008;11.144;2023-07-29T14:48:42;28.30;95.20
45643;DHT22;31358;46.008;11.144;2023-07-29T14:51:08;28.30;96.00
45643;DHT22;31358;46.008;11.144;2023-07-29T14:53:34;28.20;96.00
45643;DHT22;31358;46.008;11.144;2023-07-29T14:56:00;28.10;96.20
45643;DHT22;31358;46.008;11.144;2023-07-29T14:58:25;28.30;96.70
45643;DHT22;31358;46.008;11.144;2023-07-29T15:00:52;28.40;95.70
45643;DHT22;31358;46.008;11.144;2023-07-29T15:03:17;28.30;96.00
45643;DHT22;31358;46.008;11.144;2023-07-29T15:05:43;28.10;96.00
45643;DHT22;31358;46.008;11.144;2023-07-29T15:08:09;27.90;96.70
45643;DHT22;31358;46.008;11.144;2023-07-29T15:10:35;27.90;96.40
45643;DHT22;31358;46.008;11.144;2023-07-29T15:13:01;27.90;96.90
45643;DHT22;31358;46.008;11.144;2023-07-29T15:15:27;27.80;96.00
45643;DHT22;31358;46.008;11.144;2023-07-29T15:17:53;27.90;96.30
45643;DHT22;31358;46.008;11.144;2023-07-29T15:20:19;28.00;96.10
45643;DHT22;31358;46.008;11.144;2023-07-29T15:22:44;28.10;95.80
45643;DHT22;31358;46.008;11.144;2023-07-29T15:25:10;28.10;96.10
45643;DHT22;31358;46.008;11.144;2023-07-29T15:27:37;28.10;96.20
45643;DHT22;31358;46.008;11.144;2023-07-29T15:30:04;28.00;96.10